Time;durP1;ratioP1;P1;durP2;ratioP2;P2;SDS_P1;SDS_P2;PMS_P1;PMS_P2;Temp;Humidity;BMP_temperature;BMP_pressure;BME280_temperature;BME280_humidity;BME280_pressure;Samples;Min_cycle;Max_cycle;Signal;HPM_P1;HPM_P2
2022/05/06 00:00:06;;;;;;;0.10;0.10;;;8.60;99.90;;;;;;5121119;28;20056;-84
2022/05/06 00:02:33;;;;;;;0.10;0.10;;;8.60;99.90;;;;;;5129408;28;20108;-82
2022/05/06 00:04:59;;;;;;;0.10;0.10;;;8.60;99.90;;;;;;5089740;28;20044;-84
2022/05/06 00:07:27;;;;;;;0.10;0.10;;;8.60;99.90;;;;;;5096051;28;20039;-83
2022/05/06 00:09:54;;;;;;;0.10;0.10;;;8.60;99.90;;;;;;5095604;28;20036;-82
2022/05/06 00:12:21;;;;;;;0.10;0.10;;;8.50;99.90;;;;;;5095801;28;20040;-82
2022/05/06 00:14:48;;;;;;;0.10;0.10;;;8.50;99.90;;;;;;5095694;28;20040;-84
2022/05/06 00:17:14;;;;;;;0.20;0.20;;;8.40;99.90;;;;;;5113310;28;20373;-84
2022/05/06 00:19:45;;;;;;;0.10;0.10;;;8.50;99.90;;;;;;5115107;28;20412;-82
2022/05/06 00:22:12;;;;;;;0.10;0.10;;;8.40;99.90;;;;;;5133359;28;20036;-84
2022/05/06 00:24:39;;;;;;;0.10;0.10;;;8.40;99.90;;;;;;5099042;28;20399;-84
2022/05/06 00:27:06;;;;;;;0.10;0.10;;;8.40;99.90;;;;;;5105605;28;20085;-83
2022/05/06 00:29:33;;;;;;;0.10;0.10;;;8.40;99.90;;;;;;5095536;28;20048;-83
2022/05/06 00:32:02;;;;;;;0.13;0.13;;;8.50;99.90;;;;;;5111855;28;20036;-83
2022/05/06 00:34:28;;;;;;;0.10;0.10;;;8.50;99.90;;;;;;5112423;28;20071;-82
2022/05/06 00:36:55;;;;;;;0.10;0.10;;;8.30;99.90;;;;;;5090962;28;20074;-83
2022/05/06 00:39:22;;;;;;;0.10;0.10;;;8.30;99.90;;;;;;5111953;28;20036;-84
2022/05/06 00:41:52;;;;;;;0.10;0.10;;;8.20;99.90;;;;;;5111674;28;20113;-84
2022/05/06 00:44:20;;;;;;;0.10;0.10;;;8.30;99.90;;;;;;5129022;28;20036;-84
2022/05/06 00:46:52;;;;;;;0.10;0.10;;;8.20;99.90;;;;;;5128093;28;20075;-83
2022/05/06 00:49:20;;;;;;;0.10;0.10;;;8.20;99.90;;;;;;5112005;28;20076;-82
2022/05/06 00:51:50;;;;;;;0.20;0.20;;;8.20;99.90;;;;;;5128510;28;20040;-82
2022/05/06 00:54:17;;;;;;;0.10;0.10;;;8.10;99.90;;;;;;5128984;28;20488;-83
2022/05/06 00:56:44;;;;;;;0.10;0.10;;;8.10;99.90;;;;;;5094597;28;20089;-82
2022/05/06 00:59:12;;;;;;;0.38;0.25;;;8.00;99.90;;;;;;5111279;28;20044;-82
2022/05/06 01:01:39;;;;;;;0.65;0.35;;;8.00;99.90;;;;;;5095012;28;20457;-83
2022/05/06 01:04:06;;;;;;;0.43;0.20;;;8.00;99.90;;;;;;5111761;28;20071;-83
2022/05/06 01:06:35;;;;;;;0.10;0.10;;;7.90;99.90;;;;;;5094847;28;20773;-84
2022/05/06 01:09:03;;;;;;;0.10;0.10;;;7.90;99.90;;;;;;5094152;28;20072;-83
2022/05/06 01:11:32;;;;;;;0.10;0.10;;;7.90;99.90;;;;;;5111259;28;20039;-82
2022/05/06 01:13:59;;;;;;;0.13;0.13;;;7.90;99.90;;;;;;5111880;28;20116;-84
2022/05/06 01:16:32;;;;;;;0.10;0.10;;;8.00;99.90;;;;;;5098198;28;20097;-84
2022/05/06 01:18:59;;;;;;;0.10;0.10;;;7.80;99.90;;;;;;5114393;28;20505;-82
2022/05/06 01:21:27;;;;;;;0.10;0.10;;;7.80;99.90;;;;;;5114579;28;20118;-84
2022/05/06 01:23:53;;;;;;;0.10;0.10;;;7.80;99.90;;;;;;5131093;28;20046;-84
2022/05/06 01:26:20;;;;;;;0.10;0.10;;;7.80;99.90;;;;;;5114726;28;20036;-82
2022/05/06 01:28:49;;;;;;;0.10;0.10;;;7.70;99.90;;;;;;5114339;28;20097;-83
2022/05/06 01:31:21;;;;;;;0.10;0.10;;;8.30;99.90;;;;;;5110997;28;20128;-83
2022/05/06 01:33:54;;;;;;;0.15;0.15;;;7.70;99.90;;;;;;5127582;28;20035;-84
2022/05/06 01:36:24;;;;;;;0.10;0.10;;;7.60;99.90;;;;;;5110947;28;20480;-83
2022/05/06 01:38:54;;;;;;;0.10;0.10;;;7.60;99.90;;;;;;5093558;28;20131;-82
2022/05/06 01:41:27;;;;;;;0.20;0.20;;;7.60;99.90;;;;;;5110568;28;20114;-82
2022/05/06 01:44:03;;;;;;;0.10;0.10;;;7.60;99.90;;;;;;5093659;28;20457;-82
2022/05/06 01:46:33;;;;;;;0.10;0.10;;;7.60;99.90;;;;;;5110812;28;20047;-83
2022/05/06 01:49:02;;;;;;;0.10;0.10;;;7.50;99.90;;;;;;5110615;28;20122;-82
2022/05/06 01:51:30;;;;;;;0.10;0.10;;;7.50;99.90;;;;;;5111059;28;20040;-84
2022/05/06 01:53:57;;;;;;;0.10;0.10;;;7.70;99.90;;;;;;5096163;28;20453;-83
2022/05/06 01:56:23;;;;;;;0.10;0.10;;;7.50;99.90;;;;;;5097234;28;20044;-84
2022/05/06 01:58:51;;;;;;;0.10;0.10;;;7.40;99.90;;;;;;5113211;28;20047;-82
2022/05/06 02:01:18;;;;;;;0.10;0.10;;;7.40;99.90;;;;;;5147249;28;20055;-83
2022/05/06 02:06:30;;;;;;;0.10;0.10;;;7.40;99.90;;;;;;5133063;28;20480;-84
2022/05/06 02:08:57;;;;;;;0.10;0.10;;;7.40;99.90;;;;;;5113585;28;20100;-83
2022/05/06 02:11:24;;;;;;;0.10;0.10;;;7.40;99.90;;;;;;5116193;28;20122;-84
2022/05/06 02:13:50;;;;;;;0.10;0.10;;;7.40;99.90;;;;;;5093230;28;20412;-83
2022/05/06 02:16:17;;;;;;;0.03;0.03;;;7.40;99.90;;;;;;5109887;28;20138;-84
2022/05/06 02:18:44;;;;;;;0.10;0.10;;;7.50;99.90;;;;;;5093222;28;20036;-82
2022/05/06 02:21:10;;;;;;;0.20;0.20;;;7.30;99.90;;;;;;5096489;28;20040;-82
2022/05/06 02:23:37;;;;;;;0.10;0.10;;;7.30;99.90;;;;;;5113891;28;20031;-82
2022/05/06 02:26:04;;;;;;;0.10;0.10;;;7.40;99.90;;;;;;5113594;28;20396;-82
2022/05/06 02:28:30;;;;;;;0.10;0.10;;;7.30;99.90;;;;;;5130600;28;20507;-84
2022/05/06 02:33:43;;;;;;;0.20;0.20;;;7.30;99.90;;;;;;5132829;28;20416;-84
2022/05/06 02:36:09;;;;;;;0.10;0.10;;;7.30;99.90;;;;;;5113200;28;20098;-84
2022/05/06 02:38:36;;;;;;;0.40;0.40;;;7.30;99.90;;;;;;5113168;28;20073;-82
2022/05/06 02:41:03;;;;;;;0.10;0.10;;;7.30;99.90;;;;;;5112899;28;20051;-82
2022/05/06 02:43:30;;;;;;;0.10;0.10;;;7.20;99.90;;;;;;5127885;28;20130;-82
2022/05/06 02:45:56;;;;;;;0.15;0.15;;;7.20;99.90;;;;;;5096214;28;20213;-82
2022/05/06 02:48:23;;;;;;;0.10;0.10;;;7.40;99.90;;;;;;5113148;28;20043;-83
2022/05/06 02:50:50;;;;;;;0.10;0.10;;;7.20;99.90;;;;;;5113435;28;20040;-83
2022/05/06 02:53:20;;;;;;;0.10;0.10;;;7.20;99.90;;;;;;5129740;28;20035;-83
2022/05/06 02:55:47;;;;;;;0.10;0.10;;;7.10;99.90;;;;;;5129157;28;20040;-82
2022/05/06 02:58:13;;;;;;;0.32;0.32;;;7.20;99.90;;;;;;5113539;28;20050;-82
2022/05/06 03:00:40;;;;;;;0.10;0.10;;;7.60;99.90;;;;;;5092747;28;20056;-84
2022/05/06 03:03:07;;;;;;;0.20;0.20;;;7.20;99.90;;;;;;5109733;28;20042;-84
2022/05/06 03:05:34;;;;;;;0.10;0.10;;;7.10;99.90;;;;;;5093382;28;20663;-84
2022/05/06 03:08:00;;;;;;;0.10;0.10;;;7.10;99.90;;;;;;5096701;28;20435;-82
2022/05/06 03:10:27;;;;;;;0.10;0.10;;;7.10;99.90;;;;;;5097000;28;20078;-82
2022/05/06 03:12:58;;;;;;;0.10;0.10;;;7.10;99.90;;;;;;5113610;28;20089;-84
2022/05/06 03:15:25;;;;;;;0.10;0.10;;;7.10;99.90;;;;;;5097342;28;20386;-83
2022/05/06 03:17:52;;;;;;;0.10;0.10;;;7.00;99.90;;;;;;5096919;28;20047;-84
2022/05/06 03:20:20;;;;;;;0.20;0.20;;;7.20;99.90;;;;;;5096377;28;20044;-82
2022/05/06 03:22:47;;;;;;;0.10;0.10;;;7.00;99.90;;;;;;5113411;28;20094;-82
2022/05/06 03:25:14;;;;;;;0.20;0.20;;;7.00;99.90;;;;;;5096312;28;20055;-82
2022/05/06 03:27:59;;;;;;;0.20;0.20;;;6.90;99.90;;;;;;5096839;28;20032;-82
2022/05/06 03:30:28;;;;;;;0.15;0.15;;;6.90;99.90;;;;;;5099282;28;20039;-84
2022/05/06 03:32:55;;;;;;;0.10;0.10;;;6.90;99.90;;;;;;5112505;28;20100;-84
2022/05/06 03:35:22;;;;;;;0.32;0.32;;;7.00;99.90;;;;;;5095949;28;20093;-82
2022/05/06 03:37:51;;;;;;;0.10;0.10;;;6.90;99.90;;;;;;5112727;28;20058;-82
2022/05/06 03:40:18;;;;;;;0.20;0.20;;;6.90;99.90;;;;;;5125225;28;20067;-83
2022/05/06 03:42:44;;;;;;;0.20;0.20;;;6.80;99.90;;;;;;5116164;28;20077;-82
2022/05/06 03:45:11;;;;;;;0.10;0.10;;;6.90;99.90;;;;;;5115798;28;20119;-83
2022/05/06 03:47:38;;;;;;;0.10;0.10;;;6.80;99.90;;;;;;5116152;28;20043;-84
2022/05/06 03:52:51;;;;;;;0.13;0.13;;;6.80;99.90;;;;;;5121685;28;20044;-83
2022/05/06 03:55:18;;;;;;;0.10;0.10;;;6.90;99.90;;;;;;5132646;28;20408;-83
2022/05/06 03:57:46;;;;;;;0.10;0.10;;;6.80;99.90;;;;;;5133130;28;20040;-82
2022/05/06 04:00:14;;;;;;;0.10;0.10;;;6.80;99.90;;;;;;5095014;28;20048;-83
2022/05/06 04:02:42;;;;;;;0.10;0.10;;;6.90;99.90;;;;;;5112436;28;20400;-82
2022/05/06 04:05:09;;;;;;;0.15;0.15;;;6.90;99.90;;;;;;5096050;28;20036;-83
2022/05/06 04:07:36;;;;;;;0.10;0.10;;;7.00;99.90;;;;;;5079332;28;20047;-83
2022/05/06 04:10:03;;;;;;;0.17;0.17;;;7.30;99.90;;;;;;5096043;28;20040;-84
2022/05/06 04:12:30;;;;;;;0.10;0.10;;;6.90;99.90;;;;;;5095812;28;20404;-83
2022/05/06 04:14:57;;;;;;;4.85;0.52;;;6.90;99.90;;;;;;5078984;28;20036;-83
2022/05/06 04:17:24;;;;;;;0.10;0.10;;;6.90;99.90;;;;;;5078422;28;20039;-84
2022/05/06 04:25:21;;;;;;;0.10;0.10;;;7.10;99.90;;;;;;5118169;28;20044;-82
2022/05/06 04:27:48;;;;;;;0.80;0.65;;;7.10;99.90;;;;;;5095348;28;20282;-82
2022/05/06 04:30:15;;;;;;;0.10;0.10;;;7.20;99.90;;;;;;5095226;28;20040;-82
2022/05/06 04:32:41;;;;;;;0.10;0.10;;;7.20;99.90;;;;;;5109005;28;20034;-83
2022/05/06 04:35:09;;;;;;;0.20;0.20;;;7.30;99.90;;;;;;5094728;28;20699;-82
2022/05/06 04:37:36;;;;;;;0.20;0.20;;;7.40;99.90;;;;;;5098190;28;20032;-84
2022/05/06 04:40:04;;;;;;;0.20;0.20;;;7.40;99.90;;;;;;5094957;28;20733;-82
2022/05/06 04:42:31;;;;;;;0.10;0.10;;;7.50;99.90;;;;;;5111685;28;20040;-82
2022/05/06 04:44:57;;;;;;;0.10;0.10;;;7.70;99.90;;;;;;5111502;28;20036;-83
2022/05/06 04:47:24;;;;;;;0.10;0.10;;;7.70;99.90;;;;;;5090946;28;20072;-82
2022/05/06 04:49:51;;;;;;;0.17;0.17;;;7.90;99.90;;;;;;5095317;28;20043;-83
2022/05/06 04:52:17;;;;;;;0.43;0.32;;;8.00;99.90;;;;;;5114223;28;20101;-82
2022/05/06 04:54:44;;;;;;;0.10;0.10;;;8.00;99.90;;;;;;5129047;28;20046;-83
2022/05/06 04:57:11;;;;;;;0.20;0.20;;;8.40;99.90;;;;;;5096491;28;20036;-82
2022/05/06 04:59:37;;;;;;;0.10;0.10;;;8.20;99.90;;;;;;5080592;28;20561;-82
2022/05/06 05:02:04;;;;;;;0.20;0.20;;;8.40;99.90;;;;;;5111915;28;20050;-82
2022/05/06 05:04:31;;;;;;;0.10;0.10;;;8.30;99.90;;;;;;5093715;28;20032;-82
2022/05/06 05:07:00;;;;;;;0.10;0.10;;;8.30;99.90;;;;;;5103645;28;20032;-82
2022/05/06 05:09:26;;;;;;;0.20;0.20;;;8.40;99.90;;;;;;5128957;28;20042;-82
2022/05/06 05:11:54;;;;;;;0.10;0.10;;;8.40;99.90;;;;;;5077978;28;20044;-82
2022/05/06 05:14:21;;;;;;;0.10;0.10;;;8.50;99.90;;;;;;5094368;28;20048;-83
2022/05/06 05:16:50;;;;;;;0.10;0.10;;;8.50;99.90;;;;;;5094748;28;20097;-83
2022/05/06 05:19:17;;;;;;;0.10;0.10;;;8.60;99.90;;;;;;5094110;28;20398;-83
2022/05/06 05:21:44;;;;;;;0.10;0.10;;;8.70;99.90;;;;;;5099048;28;20036;-82
2022/05/06 05:24:11;;;;;;;0.10;0.10;;;8.80;99.90;;;;;;5109902;28;20047;-84
2022/05/06 05:26:38;;;;;;;0.20;0.20;;;8.90;99.90;;;;;;5077265;28;20047;-82
2022/05/06 05:29:04;;;;;;;0.10;0.10;;;9.00;99.90;;;;;;5110215;28;20039;-82
2022/05/06 05:31:31;;;;;;;0.10;0.10;;;9.10;99.90;;;;;;5109965;28;20483;-82
2022/05/06 05:33:58;;;;;;;0.10;0.10;;;9.20;99.90;;;;;;5127795;28;20067;-83
2022/05/06 05:36:25;;;;;;;0.10;0.10;;;9.20;99.90;;;;;;5106464;28;20079;-83
2022/05/06 05:38:52;;;;;;;0.10;0.10;;;9.30;99.90;;;;;;5111175;28;20087;-84
2022/05/06 05:41:18;;;;;;;0.10;0.10;;;9.40;99.90;;;;;;5093897;28;20036;-83
2022/05/06 05:49:15;;;;;;;0.10;0.10;;;9.70;99.90;;;;;;5112886;28;20040;-82
2022/05/06 05:51:43;;;;;;;0.10;0.10;;;9.70;99.90;;;;;;5094386;28;20078;-83
2022/05/06 05:54:09;;;;;;;0.20;0.20;;;9.80;99.90;;;;;;5110437;28;20051;-82
2022/05/06 05:56:36;;;;;;;0.10;0.10;;;9.90;99.90;;;;;;5113816;28;20046;-82
2022/05/06 05:59:03;;;;;;;0.10;0.10;;;9.90;99.90;;;;;;5096686;28;20074;-83
2022/05/06 06:01:30;;;;;;;0.65;0.20;;;10.00;99.90;;;;;;5113378;28;20055;-83
2022/05/06 06:04:00;;;;;;;0.10;0.10;;;10.00;99.90;;;;;;5130727;28;20031;-82
2022/05/06 06:06:27;;;;;;;0.13;0.13;;;10.00;99.90;;;;;;5097405;28;20047;-83
2022/05/06 06:08:53;;;;;;;0.38;0.30;;;10.10;99.90;;;;;;5129275;28;20043;-83
2022/05/06 06:11:20;;;;;;;0.10;0.10;;;10.20;99.90;;;;;;5109834;28;20505;-84
2022/05/06 06:13:47;;;;;;;0.10;0.10;;;10.20;99.90;;;;;;5100720;28;20050;-85
2022/05/06 06:16:14;;;;;;;0.10;0.10;;;10.30;99.90;;;;;;5114204;28;20039;-85
2022/05/06 06:18:41;;;;;;;0.10;0.10;;;10.30;99.90;;;;;;5093876;28;20047;-85
2022/05/06 06:21:08;;;;;;;0.88;0.17;;;10.40;99.90;;;;;;5093111;28;20124;-85
2022/05/06 06:23:35;;;;;;;0.10;0.10;;;10.50;99.90;;;;;;5111044;28;20129;-84
2022/05/06 06:26:02;;;;;;;0.10;0.10;;;10.60;99.90;;;;;;5129737;28;20031;-86
2022/05/06 06:28:29;;;;;;;0.10;0.10;;;10.70;99.90;;;;;;5130223;28;20036;-85
2022/05/06 06:30:55;;;;;;;0.10;0.10;;;10.80;99.90;;;;;;5090954;28;20377;-85
2022/05/06 06:33:22;;;;;;;0.10;0.10;;;10.80;99.90;;;;;;5095265;28;20036;-85
2022/05/06 06:35:49;;;;;;;0.10;0.10;;;10.90;99.90;;;;;;5093462;28;20055;-84
2022/05/06 06:38:16;;;;;;;0.08;0.08;;;11.00;99.90;;;;;;5091721;28;20043;-85
2022/05/06 06:40:43;;;;;;;0.08;0.08;;;11.00;99.90;;;;;;5109043;28;20104;-86
2022/05/06 06:43:09;;;;;;;0.32;0.32;;;11.00;99.90;;;;;;5116760;28;20484;-87
2022/05/06 06:45:37;;;;;;;0.10;0.10;;;11.00;99.90;;;;;;5100965;28;20489;-85
2022/05/06 06:48:04;;;;;;;0.00;0.00;;;11.10;99.90;;;;;;5120795;28;20044;-87
2022/05/06 06:50:31;;;;;;;0.00;0.00;;;11.30;99.90;;;;;;5092743;28;20036;-88
2022/05/06 06:52:59;;;;;;;0.28;0.20;;;11.40;99.90;;;;;;5128307;28;20040;-89
2022/05/06 06:55:26;;;;;;;0.15;0.15;;;11.50;99.90;;;;;;5113629;28;20050;-87
2022/05/06 06:57:53;;;;;;;0.10;0.10;;;11.60;99.90;;;;;;5130360;28;20115;-87
2022/05/06 07:00:20;;;;;;;0.10;0.10;;;11.80;99.90;;;;;;5096125;28;20047;-85
2022/05/06 07:02:46;;;;;;;0.00;0.00;;;11.90;99.90;;;;;;5109335;28;20040;-85
2022/05/06 07:05:13;;;;;;;0.75;0.32;;;12.00;99.90;;;;;;5095891;28;20036;-85
2022/05/06 07:13:11;;;;;;;0.10;0.10;;;12.60;99.90;;;;;;5107496;28;20043;-86
2022/05/06 07:15:37;;;;;;;0.10;0.10;;;12.80;99.90;;;;;;5115987;28;20044;-85
2022/05/06 07:18:04;;;;;;;0.10;0.10;;;12.90;99.90;;;;;;5090731;28;20043;-85
2022/05/06 07:20:31;;;;;;;0.10;0.10;;;13.10;99.90;;;;;;5125644;28;20036;-85
2022/05/06 07:22:58;;;;;;;0.10;0.10;;;13.20;99.90;;;;;;5101625;28;20031;-84
2022/05/06 07:25:24;;;;;;;2.08;0.52;;;13.20;99.90;;;;;;5094651;28;20038;-85
2022/05/06 07:27:51;;;;;;;0.00;0.00;;;13.30;99.90;;;;;;5113405;28;20036;-84
2022/05/06 07:30:18;;;;;;;0.05;0.05;;;13.30;99.90;;;;;;5096422;28;20044;-86
2022/05/06 07:32:45;;;;;;;0.00;0.00;;;13.20;99.90;;;;;;5129327;28;20715;-86
2022/05/06 07:35:12;;;;;;;0.10;0.10;;;13.20;99.90;;;;;;5128847;28;20051;-85
2022/05/06 07:37:38;;;;;;;0.13;0.13;;;13.10;99.90;;;;;;5103231;28;20412;-87
2022/05/06 07:40:06;;;;;;;0.10;0.10;;;13.10;99.90;;;;;;5129588;28;20031;-85
2022/05/06 07:42:34;;;;;;;0.00;0.00;;;13.10;99.90;;;;;;5111878;28;20047;-84
2022/05/06 07:45:01;;;;;;;0.10;0.10;;;13.20;99.90;;;;;;5113005;28;20038;-85
2022/05/06 07:47:27;;;;;;;0.00;0.00;;;13.30;99.90;;;;;;5129035;28;20416;-86
2022/05/06 07:49:54;;;;;;;0.55;0.10;;;13.30;99.90;;;;;;5081386;28;20065;-86
2022/05/06 07:52:21;;;;;;;0.45;0.22;;;13.50;99.90;;;;;;5115594;28;20036;-85
2022/05/06 07:54:48;;;;;;;0.10;0.10;;;13.60;99.90;;;;;;5115531;28;20035;-86
2022/05/06 07:57:14;;;;;;;0.00;0.00;;;13.70;99.90;;;;;;5117053;28;20070;-87
2022/05/06 07:59:41;;;;;;;0.43;0.25;;;13.80;99.90;;;;;;5149202;28;20061;-83
2022/05/06 08:04:54;;;;;;;0.10;0.10;;;14.00;99.90;;;;;;5135162;28;20097;-84
2022/05/06 08:07:21;;;;;;;0.00;0.00;;;14.00;99.90;;;;;;5099578;28;20046;-83
2022/05/06 08:09:49;;;;;;;0.05;0.05;;;14.00;99.90;;;;;;5098711;28;20043;-84
2022/05/06 08:12:15;;;;;;;0.45;0.28;;;14.20;99.90;;;;;;5132606;28;20039;-84
2022/05/06 08:14:44;;;;;;;0.00;0.00;;;14.30;99.90;;;;;;5115334;28;20515;-84
2022/05/06 08:17:11;;;;;;;0.17;0.17;;;14.50;99.90;;;;;;5132472;28;20043;-83
2022/05/06 08:19:38;;;;;;;0.00;0.00;;;14.60;99.90;;;;;;5098563;28;20046;-84
2022/05/06 08:22:05;;;;;;;0.15;0.10;;;14.70;99.90;;;;;;5099211;28;20032;-84
2022/05/06 08:24:32;;;;;;;0.10;0.10;;;14.90;99.90;;;;;;5114919;28;20675;-84
2022/05/06 08:26:58;;;;;;;0.08;0.08;;;14.90;99.90;;;;;;5115353;28;20031;-84
2022/05/06 08:29:25;;;;;;;0.52;0.43;;;15.10;99.90;;;;;;5098812;28;20419;-85
2022/05/06 08:31:52;;;;;;;0.00;0.00;;;15.00;99.90;;;;;;5098343;28;20393;-85
2022/05/06 08:34:19;;;;;;;0.38;0.20;;;15.20;99.90;;;;;;5098722;28;20051;-84
2022/05/06 08:36:46;;;;;;;0.32;0.30;;;15.20;99.90;;;;;;5098620;28;20044;-85
2022/05/06 08:39:13;;;;;;;0.08;0.08;;;15.20;99.90;;;;;;5114765;28;20028;-84
2022/05/06 08:41:40;;;;;;;0.52;0.40;;;15.30;99.90;;;;;;5098197;28;20408;-83
2022/05/06 08:52:47;;;;;;;0.00;0.00;;;15.40;99.90;;;;;;5148955;28;20300;-84
2022/05/06 08:55:14;;;;;;;0.00;0.00;;;15.50;99.90;;;;;;5132099;28;20522;-84
2022/05/06 08:57:42;;;;;;;0.28;0.22;;;15.60;99.90;;;;;;5114925;28;20032;-84
2022/05/06 09:00:09;;;;;;;0.10;0.03;;;15.70;99.90;;;;;;5124427;28;20048;-86
2022/05/06 09:02:39;;;;;;;0.32;0.20;;;15.90;99.90;;;;;;5096112;28;20035;-84
2022/05/06 09:05:16;;;;;;;0.13;0.13;;;16.00;99.90;;;;;;5131409;28;20054;-85
2022/05/06 09:07:55;;;;;;;0.00;0.00;;;16.40;99.90;;;;;;5114961;28;20214;-85
2022/05/06 09:10:22;;;;;;;0.30;0.30;;;16.50;99.90;;;;;;5120563;28;20438;-84
2022/05/06 09:12:53;;;;;;;0.30;0.25;;;16.60;99.90;;;;;;5114335;28;20077;-86
2022/05/06 09:18:07;;;;;;;0.90;0.50;;;16.70;99.90;;;;;;5115571;28;20044;-84
2022/05/06 09:20:35;;;;;;;0.10;0.10;;;16.80;99.90;;;;;;5113759;28;20134;-83
2022/05/06 09:23:24;;;;;;;0.17;0.10;;;16.80;99.90;;;;;;5097380;28;20040;-83
2022/05/06 09:25:52;;;;;;;0.63;0.40;;;16.80;99.90;;;;;;5130141;28;20044;-84
2022/05/06 09:28:29;;;;;;;0.38;0.30;;;16.70;99.90;;;;;;5130372;28;20035;-84
2022/05/06 09:31:06;;;;;;;0.73;0.38;;;16.60;99.90;;;;;;5120923;28;20079;-84
2022/05/06 09:33:40;;;;;;;0.45;0.30;;;16.50;99.90;;;;;;5115691;28;20032;-85
2022/05/06 09:36:24;;;;;;;0.43;0.20;;;16.40;99.90;;;;;;5122117;28;20085;-85
2022/05/06 09:39:10;;;;;;;0.22;0.22;;;16.30;99.90;;;;;;5126767;28;20047;-85
2022/05/06 09:41:38;;;;;;;0.30;0.25;;;16.30;99.90;;;;;;5121416;28;20035;-84
2022/05/06 09:44:07;;;;;;;0.38;0.28;;;16.20;99.90;;;;;;5114640;28;20035;-85
2022/05/06 09:46:35;;;;;;;0.40;0.38;;;16.10;99.90;;;;;;5143676;28;20044;-85
2022/05/06 09:49:03;;;;;;;0.57;0.45;;;16.20;99.90;;;;;;5100783;28;20039;-86
2022/05/06 09:51:34;;;;;;;0.13;0.08;;;16.20;99.90;;;;;;5120104;28;20093;-85
2022/05/06 09:54:03;;;;;;;1.23;0.43;;;16.30;99.90;;;;;;5093727;28;20518;-85
2022/05/06 09:56:30;;;;;;;0.73;0.40;;;16.40;99.90;;;;;;5127075;28;20044;-85
2022/05/06 09:58:57;;;;;;;0.32;0.22;;;16.60;99.90;;;;;;5093180;28;20036;-85
2022/05/06 10:01:24;;;;;;;0.90;0.45;;;16.90;99.90;;;;;;5102254;28;20059;-85
2022/05/06 10:03:53;;;;;;;1.45;0.70;;;16.90;99.90;;;;;;5149734;28;20044;-84
2022/05/06 10:06:25;;;;;;;0.28;0.10;;;16.90;99.90;;;;;;5120011;28;20032;-84
2022/05/06 10:08:58;;;;;;;0.32;0.22;;;17.10;99.90;;;;;;5122016;28;20134;-86
2022/05/06 10:11:28;;;;;;;1.15;0.70;;;17.20;99.90;;;;;;5110725;28;20047;-89
2022/05/06 10:14:00;;;;;;;0.20;0.17;;;17.20;99.90;;;;;;5094518;28;20050;-88
2022/05/06 10:16:34;;;;;;;0.45;0.30;;;17.40;99.90;;;;;;5113182;28;20430;-88
2022/05/06 10:19:01;;;;;;;0.30;0.22;;;17.60;99.90;;;;;;5147998;28;20040;-86
2022/05/06 10:21:48;;;;;;;0.63;0.30;;;17.60;99.90;;;;;;5096628;28;20089;-86
2022/05/06 10:24:16;;;;;;;0.13;0.10;;;17.90;99.90;;;;;;5142765;28;20036;-86
2022/05/06 10:26:52;;;;;;;0.80;0.50;;;18.10;99.90;;;;;;5109643;28;20062;-85
2022/05/06 10:35:05;;;;;;;0.15;0.15;;;18.10;99.90;;;;;;5132058;28;20047;-86
2022/05/06 10:37:40;;;;;;;0.52;0.28;;;18.40;99.90;;;;;;5136592;28;20047;-83
2022/05/06 10:40:25;;;;;;;0.85;0.45;;;18.50;99.90;;;;;;5129903;28;20040;-84
2022/05/06 10:42:52;;;;;;;1.83;0.73;;;18.60;99.90;;;;;;5143573;28;20052;-85
2022/05/06 10:45:27;;;;;;;0.65;0.43;;;18.60;99.90;;;;;;5096221;28;20285;-87
2022/05/06 10:47:54;;;;;;;0.60;0.30;;;18.80;99.90;;;;;;5129920;28;20040;-87
2022/05/06 10:50:22;;;;;;;0.75;0.30;;;18.70;99.90;;;;;;5113438;28;20047;-83
2022/05/06 10:52:50;;;;;;;0.20;0.13;;;18.90;99.90;;;;;;5112606;28;20050;-88
2022/05/06 10:55:18;;;;;;;1.02;0.52;;;19.00;99.90;;;;;;5130469;28;20495;-87
2022/05/06 10:57:49;;;;;;;1.27;0.57;;;19.00;99.90;;;;;;5147197;28;20050;-89
2022/05/06 11:00:17;;;;;;;1.02;0.70;;;19.10;99.90;;;;;;5121293;28;20178;-86
2022/05/06 11:02:44;;;;;;;1.02;0.50;;;19.20;99.90;;;;;;5104865;28;20046;-84
2022/05/06 11:05:14;;;;;;;0.55;0.38;;;19.30;99.90;;;;;;5129160;28;20039;-86
2022/05/06 11:07:46;;;;;;;0.20;0.20;;;19.30;99.90;;;;;;5109458;28;20036;-85
2022/05/06 11:10:21;;;;;;;0.85;0.30;;;19.20;99.90;;;;;;5110525;28;20043;-85
2022/05/06 11:12:57;;;;;;;0.38;0.30;;;19.20;99.90;;;;;;5100163;28;20035;-83
2022/05/06 11:15:32;;;;;;;1.48;0.57;;;19.30;99.90;;;;;;5129425;28;20055;-85
2022/05/06 11:18:00;;;;;;;0.43;0.28;;;19.30;99.90;;;;;;5112750;28;20077;-84
2022/05/06 11:20:29;;;;;;;0.77;0.55;;;19.60;99.90;;;;;;5110014;28;20043;-84
2022/05/06 11:22:58;;;;;;;0.25;0.20;;;19.30;99.90;;;;;;5128911;28;20377;-82
2022/05/06 11:25:30;;;;;;;0.13;0.13;;;19.40;99.90;;;;;;5114818;28;20514;-83
2022/05/06 11:27:59;;;;;;;0.68;0.32;;;19.40;99.90;;;;;;5119653;28;20040;-84
2022/05/06 11:30:29;;;;;;;0.38;0.22;;;19.50;99.90;;;;;;5128376;28;20047;-83
2022/05/06 11:33:04;;;;;;;0.63;0.30;;;19.80;99.90;;;;;;5141351;28;20044;-84
2022/05/06 11:35:32;;;;;;;0.20;0.20;;;19.80;99.80;;;;;;5094472;28;20047;-84
2022/05/06 11:38:00;;;;;;;0.35;0.30;;;19.70;99.50;;;;;;5126215;28;20051;-83
2022/05/06 11:43:00;;;;;;;0.70;0.43;;;19.90;99.20;;;;;;5129045;28;20764;-84
2022/05/06 11:48:20;;;;;;;0.05;0.05;;;20.00;99.20;;;;;;5114896;28;20546;-84
2022/05/06 11:51:07;;;;;;;0.47;0.30;;;20.00;99.20;;;;;;5112648;28;20048;-84
2022/05/06 11:53:35;;;;;;;0.52;0.43;;;20.00;97.60;;;;;;5112990;28;20078;-86
2022/05/06 11:56:02;;;;;;;0.20;0.20;;;20.00;97.60;;;;;;5079436;28;20032;-85
2022/05/06 11:58:29;;;;;;;0.20;0.20;;;20.10;97.70;;;;;;5079930;28;20815;-85
2022/05/06 12:00:56;;;;;;;0.70;0.40;;;20.20;97.70;;;;;;5092254;28;20131;-86
2022/05/06 12:03:23;;;;;;;0.45;0.30;;;20.20;97.30;;;;;;5079114;28;20128;-86
2022/05/06 12:06:02;;;;;;;1.13;0.38;;;20.20;97.80;;;;;;5108675;28;20127;-85
2022/05/06 12:08:31;;;;;;;0.22;0.22;;;20.30;98.00;;;;;;5132573;28;20039;-86
2022/05/06 12:11:05;;;;;;;0.50;0.32;;;20.20;98.60;;;;;;5131612;28;20089;-86
2022/05/06 12:13:38;;;;;;;2.33;0.45;;;20.00;98.10;;;;;;5149474;28;20438;-86
2022/05/06 12:16:13;;;;;;;1.27;0.47;;;20.10;99.00;;;;;;5111910;28;20416;-86
2022/05/06 12:18:54;;;;;;;0.82;0.25;;;20.10;96.00;;;;;;5115115;28;20130;-85
2022/05/06 12:21:26;;;;;;;0.17;0.17;;;20.30;96.30;;;;;;5115422;28;20040;-85
2022/05/06 12:23:58;;;;;;;0.17;0.15;;;20.40;95.80;;;;;;5143741;28;20036;-85
2022/05/06 12:26:36;;;;;;;0.30;0.17;;;20.40;91.00;;;;;;5141379;28;20039;-86
2022/05/06 12:29:24;;;;;;;1.00;0.32;;;20.50;92.00;;;;;;5122472;28;20099;-86
2022/05/06 12:32:01;;;;;;;0.70;0.38;;;20.60;91.50;;;;;;5114129;28;20048;-85
2022/05/06 12:34:29;;;;;;;0.70;0.55;;;20.70;92.10;;;;;;5126828;28;20865;-85
2022/05/06 12:37:18;;;;;;;0.28;0.28;;;20.80;93.50;;;;;;5086320;28;20043;-85
2022/05/06 12:39:48;;;;;;;0.65;0.38;;;20.90;90.80;;;;;;5111868;28;20040;-85
2022/05/06 12:42:16;;;;;;;0.20;0.20;;;21.00;91.80;;;;;;5111760;28;20040;-86
2022/05/06 12:44:44;;;;;;;0.10;0.10;;;20.80;89.20;;;;;;5098235;28;20039;-85
2022/05/06 12:50:17;;;;;;;0.30;0.20;;;21.00;92.70;;;;;;5134995;28;20044;-86
2022/05/06 12:52:43;;;;;;;0.10;0.10;;;21.00;91.50;;;;;;5106045;28;20085;-85
2022/05/06 12:55:10;;;;;;;0.20;0.13;;;21.10;92.00;;;;;;5102742;28;20039;-86
2022/05/06 12:57:40;;;;;;;0.45;0.25;;;21.20;90.90;;;;;;5111831;28;20075;-86
2022/05/06 13:00:07;;;;;;;1.00;0.50;;;21.10;90.30;;;;;;5109961;28;20767;-86
2022/05/06 13:02:34;;;;;;;1.02;0.45;;;21.10;90.80;;;;;;5087953;28;20071;-87
2022/05/06 13:05:00;;;;;;;0.10;0.10;;;21.10;91.40;;;;;;5115828;28;20071;-89
2022/05/06 13:07:27;;;;;;;0.22;0.13;;;21.10;90.20;;;;;;5098487;28;20046;-87
2022/05/06 13:09:54;;;;;;;0.10;0.10;;;21.00;91.90;;;;;;5097714;28;20084;-86
2022/05/06 13:12:21;;;;;;;0.20;0.20;;;21.10;91.80;;;;;;5098041;28;20040;-86
2022/05/06 13:14:47;;;;;;;0.30;0.20;;;21.20;91.30;;;;;;5097411;28;20043;-86
2022/05/06 13:17:14;;;;;;;0.35;0.17;;;21.10;90.90;;;;;;5113850;28;20047;-87
2022/05/06 13:19:41;;;;;;;0.73;0.40;;;21.10;90.60;;;;;;5113860;28;20032;-85
2022/05/06 13:22:07;;;;;;;0.15;0.15;;;21.10;90.90;;;;;;5093379;28;20584;-86
2022/05/06 13:24:34;;;;;;;0.52;0.30;;;21.10;91.30;;;;;;5093557;28;20044;-85
2022/05/06 13:27:01;;;;;;;0.50;0.28;;;21.20;92.00;;;;;;5120484;28;20028;-85
2022/05/06 13:29:28;;;;;;;0.50;0.28;;;21.20;92.30;;;;;;5088961;28;20035;-85
2022/05/06 13:31:54;;;;;;;0.68;0.30;;;21.20;92.00;;;;;;5106438;28;20075;-84
2022/05/06 13:34:21;;;;;;;0.10;0.10;;;21.20;91.30;;;;;;5102456;28;20044;-86
2022/05/06 13:36:48;;;;;;;0.30;0.25;;;21.30;91.80;;;;;;5123053;28;20051;-86
2022/05/06 13:39:14;;;;;;;0.10;0.10;;;21.30;92.10;;;;;;5093402;28;20564;-86
2022/05/06 13:41:41;;;;;;;0.20;0.15;;;21.10;90.50;;;;;;5093416;28;20040;-86
2022/05/06 13:44:08;;;;;;;0.25;0.20;;;21.30;90.80;;;;;;5084237;28;20119;-85
2022/05/06 13:46:34;;;;;;;0.40;0.28;;;21.30;91.60;;;;;;5097039;28;20047;-86
2022/05/06 13:49:02;;;;;;;0.28;0.20;;;21.40;90.70;;;;;;5096545;28;20039;-86